sensor_id;sensor_type;location;lat;lon;timestamp;pressure;altitude;pressure_sealevel;temperature;humidity
73624;BME280;61921;53.226;-1.296;2022-09-01T00:00:46;101502.53;;;15.57;86.97
73624;BME280;61921;53.226;-1.296;2022-09-01T00:03:11;101498.35;;;15.58;86.69
73624;BME280;61921;53.226;-1.296;2022-09-01T00:05:37;101498.76;;;15.35;87.74
73624;BME280;61921;53.226;-1.296;2022-09-01T00:08:03;101496.84;;;15.42;87.49
73624;BME280;61921;53.226;-1.296;2022-09-01T00:10:28;101501.56;;;15.53;86.97
73624;BME280;61921;53.226;-1.296;2022-09-01T00:12:53;101499.51;;;15.58;86.75
73624;BME280;61921;53.226;-1.296;2022-09-01T00:15:19;101496.08;;;15.68;86.28
73624;BME280;61921;53.226;-1.296;2022-09-01T00:17:44;101493.11;;;15.58;86.89
73624;BME280;61921;53.226;-1.296;2022-09-01T00:20:10;101495.38;;;15.68;86.40
73624;BME280;61921;53.226;-1.296;2022-09-01T00:22:34;101495.15;;;15.55;87.02
73624;BME280;61921;53.226;-1.296;2022-09-01T00:25:00;101494.19;;;15.40;87.86
73624;BME280;61921;53.226;-1.296;2022-09-01T00:27:25;101497.49;;;15.44;87.72
73624;BME280;61921;53.226;-1.296;2022-09-01T00:29:50;101495.80;;;15.53;87.36
73624;BME280;61921;53.226;-1.296;2022-09-01T00:32:16;101494.19;;;15.53;87.21
73624;BME280;61921;53.226;-1.296;2022-09-01T00:34:42;101490.35;;;15.52;87.10
73624;BME280;61921;53.226;-1.296;2022-09-01T00:37:07;101490.36;;;15.57;87.13
73624;BME280;61921;53.226;-1.296;2022-09-01T00:39:32;101492.44;;;15.71;86.45
73624;BME280;61921;53.226;-1.296;2022-09-01T00:41:57;101491.97;;;15.52;87.36
73624;BME280;61921;53.226;-1.296;2022-09-01T00:44:23;101489.94;;;15.53;87.34
73624;BME280;61921;53.226;-1.296;2022-09-01T00:46:50;101485.38;;;15.42;87.78
73624;BME280;61921;53.226;-1.296;2022-09-01T00:49:16;101488.71;;;15.63;86.84
73624;BME280;61921;53.226;-1.296;2022-09-01T00:51:42;101482.51;;;15.62;86.64
73624;BME280;61921;53.226;-1.296;2022-09-01T00:54:07;101484.17;;;15.38;87.76
73624;BME280;61921;53.226;-1.296;2022-09-01T00:56:31;101486.23;;;15.53;87.45
73624;BME280;61921;53.226;-1.296;2022-09-01T00:58:56;101484.89;;;15.62;86.67
73624;BME280;61921;53.226;-1.296;2022-09-01T01:01:21;101481.17;;;15.55;87.11
73624;BME280;61921;53.226;-1.296;2022-09-01T01:03:47;101482.18;;;15.53;87.29
73624;BME280;61921;53.226;-1.296;2022-09-01T01:06:15;101480.92;;;15.50;87.48
73624;BME280;61921;53.226;-1.296;2022-09-01T01:08:42;101472.88;;;15.36;88.20
73624;BME280;61921;53.226;-1.296;2022-09-01T01:11:06;101472.90;;;15.48;87.82
73624;BME280;61921;53.226;-1.296;2022-09-01T01:13:29;101472.26;;;15.59;87.15
73624;BME280;61921;53.226;-1.296;2022-09-01T01:15:56;101466.22;;;15.54;87.28
73624;BME280;61921;53.226;-1.296;2022-09-01T01:18:21;101464.50;;;15.54;87.27
73624;BME280;61921;53.226;-1.296;2022-09-01T01:20:47;101467.06;;;15.68;86.68
73624;BME280;61921;53.226;-1.296;2022-09-01T01:23:17;101462.12;;;15.61;86.78
73624;BME280;61921;53.226;-1.296;2022-09-01T01:25:40;101465.54;;;15.69;86.61
73624;BME280;61921;53.226;-1.296;2022-09-01T01:28:07;101467.40;;;15.99;84.48
73624;BME280;61921;53.226;-1.296;2022-09-01T01:30:28;101459.54;;;15.70;86.25
73624;BME280;61921;53.226;-1.296;2022-09-01T01:32:53;101461.86;;;15.55;86.95
73624;BME280;61921;53.226;-1.296;2022-09-01T01:35:18;101461.64;;;15.53;87.12
73624;BME280;61921;53.226;-1.296;2022-09-01T01:37:45;101457.59;;;15.58;87.05
73624;BME280;61921;53.226;-1.296;2022-09-01T01:40:11;101454.35;;;15.71;86.33
73624;BME280;61921;53.226;-1.296;2022-09-01T01:42:35;101454.03;;;15.59;87.07
73624;BME280;61921;53.226;-1.296;2022-09-01T01:45:01;101450.32;;;15.67;86.77
73624;BME280;61921;53.226;-1.296;2022-09-01T01:47:26;101449.88;;;15.53;87.38
73624;BME280;61921;53.226;-1.296;2022-09-01T01:49:51;101446.99;;;15.55;87.34
73624;BME280;61921;53.226;-1.296;2022-09-01T01:52:17;101441.35;;;15.59;87.22
73624;BME280;61921;53.226;-1.296;2022-09-01T01:54:43;101441.82;;;15.58;87.14
73624;BME280;61921;53.226;-1.296;2022-09-01T01:57:07;101442.18;;;15.66;86.98
73624;BME280;61921;53.226;-1.296;2022-09-01T01:59:33;101442.65;;;15.57;87.36
73624;BME280;61921;53.226;-1.296;2022-09-01T02:01:58;101443.62;;;15.69;86.77
73624;BME280;61921;53.226;-1.296;2022-09-01T02:04:24;101445.44;;;15.64;86.93
73624;BME280;61921;53.226;-1.296;2022-09-01T02:06:49;101442.81;;;15.50;87.68
73624;BME280;61921;53.226;-1.296;2022-09-01T02:09:15;101444.93;;;15.64;86.12
73624;BME280;61921;53.226;-1.296;2022-09-01T02:11:38;101448.14;;;15.76;86.40
73624;BME280;61921;53.226;-1.296;2022-09-01T02:14:05;101448.48;;;15.55;87.15
73624;BME280;61921;53.226;-1.296;2022-09-01T02:16:31;101446.82;;;15.36;87.96
73624;BME280;61921;53.226;-1.296;2022-09-01T02:18:54;101445.15;;;15.32;88.19
73624;BME280;61921;53.226;-1.296;2022-09-01T02:21:22;101448.09;;;15.45;87.56
73624;BME280;61921;53.226;-1.296;2022-09-01T02:23:46;101446.36;;;15.43;87.43
73624;BME280;61921;53.226;-1.296;2022-09-01T02:26:10;101441.91;;;15.51;87.24
73624;BME280;61921;53.226;-1.296;2022-09-01T02:28:37;101440.73;;;15.61;86.81
73624;BME280;61921;53.226;-1.296;2022-09-01T02:31:00;101439.73;;;15.51;86.72
73624;BME280;61921;53.226;-1.296;2022-09-01T02:33:26;101438.62;;;15.41;87.11
73624;BME280;61921;53.226;-1.296;2022-09-01T02:35:54;101435.77;;;15.47;87.04
73624;BME280;61921;53.226;-1.296;2022-09-01T02:38:17;101435.34;;;15.37;87.23
73624;BME280;61921;53.226;-1.296;2022-09-01T02:40:43;101431.98;;;15.28;87.70
73624;BME280;61921;53.226;-1.296;2022-09-01T02:43:07;101429.43;;;15.43;87.17
73624;BME280;61921;53.226;-1.296;2022-09-01T02:45:32;101427.11;;;15.46;86.95
73624;BME280;61921;53.226;-1.296;2022-09-01T02:47:57;101429.81;;;15.61;86.26
73624;BME280;61921;53.226;-1.296;2022-09-01T02:50:23;101424.96;;;15.36;86.83
73624;BME280;61921;53.226;-1.296;2022-09-01T02:52:48;101427.89;;;15.28;87.34
73624;BME280;61921;53.226;-1.296;2022-09-01T02:55:13;101424.33;;;15.37;87.10
73624;BME280;61921;53.226;-1.296;2022-09-01T02:57:39;101425.39;;;15.30;87.29
73624;BME280;61921;53.226;-1.296;2022-09-01T03:00:07;101427.06;;;15.23;87.65
73624;BME280;61921;53.226;-1.296;2022-09-01T03:02:29;101420.63;;;15.18;87.86
73624;BME280;61921;53.226;-1.296;2022-09-01T03:04:55;101420.69;;;15.30;87.66
73624;BME280;61921;53.226;-1.296;2022-09-01T03:07:21;101418.74;;;15.25;87.57
73624;BME280;61921;53.226;-1.296;2022-09-01T03:09:46;101418.90;;;15.24;87.99
73624;BME280;61921;53.226;-1.296;2022-09-01T03:12:11;101411.85;;;15.38;87.22
73624;BME280;61921;53.226;-1.296;2022-09-01T03:14:37;101412.52;;;15.21;87.55
73624;BME280;61921;53.226;-1.296;2022-09-01T03:17:02;101411.47;;;15.10;88.24
73624;BME280;61921;53.226;-1.296;2022-09-01T03:19:28;101411.35;;;15.14;88.09
73624;BME280;61921;53.226;-1.296;2022-09-01T03:21:53;101407.46;;;15.06;88.41
73624;BME280;61921;53.226;-1.296;2022-09-01T03:24:19;101406.20;;;15.14;88.02
73624;BME280;61921;53.226;-1.296;2022-09-01T03:26:46;101403.09;;;15.23;87.28
73624;BME280;61921;53.226;-1.296;2022-09-01T03:29:10;101406.35;;;14.91;88.95
73624;BME280;61921;53.226;-1.296;2022-09-01T03:31:35;101407.20;;;14.95;88.46
73624;BME280;61921;53.226;-1.296;2022-09-01T03:34:00;101411.71;;;14.91;88.91
73624;BME280;61921;53.226;-1.296;2022-09-01T03:36:26;101411.79;;;15.04;88.40
73624;BME280;61921;53.226;-1.296;2022-09-01T03:38:51;101412.19;;;15.05;88.43
73624;BME280;61921;53.226;-1.296;2022-09-01T03:41:19;101411.97;;;15.02;88.63
73624;BME280;61921;53.226;-1.296;2022-09-01T03:43:42;101409.96;;;15.14;88.00
73624;BME280;61921;53.226;-1.296;2022-09-01T03:46:07;101407.36;;;14.99;88.95
73624;BME280;61921;53.226;-1.296;2022-09-01T03:48:32;101407.58;;;15.08;88.65
73624;BME280;61921;53.226;-1.296;2022-09-01T03:50:58;101405.89;;;15.07;89.07
73624;BME280;61921;53.226;-1.296;2022-09-01T03:53:23;101403.52;;;15.08;88.91
73624;BME280;61921;53.226;-1.296;2022-09-01T03:55:48;101400.15;;;15.03;89.13
73624;BME280;61921;53.226;-1.296;2022-09-01T03:58:18;101396.77;;;15.14;88.91
73624;BME280;61921;53.226;-1.296;2022-09-01T04:00:41;101396.60;;;14.98;89.63
73624;BME280;61921;53.226;-1.296;2022-09-01T04:03:07;101395.14;;;14.94;90.27
73624;BME280;61921;53.226;-1.296;2022-09-01T04:05:31;101398.80;;;15.00;89.98
73624;BME280;61921;53.226;-1.296;2022-09-01T04:07:58;101400.62;;;14.97;90.22
73624;BME280;61921;53.226;-1.296;2022-09-01T04:10:21;101395.41;;;14.97;90.11
73624;BME280;61921;53.226;-1.296;2022-09-01T04:12:46;101396.30;;;15.01;90.35
73624;BME280;61921;53.226;-1.296;2022-09-01T04:15:12;101396.65;;;15.12;89.61
73624;BME280;61921;53.226;-1.296;2022-09-01T04:17:37;101393.77;;;15.05;89.86
73624;BME280;61921;53.226;-1.296;2022-09-01T04:20:04;101393.35;;;15.10;89.65
73624;BME280;61921;53.226;-1.296;2022-09-01T04:22:29;101388.78;;;15.16;89.39
73624;BME280;61921;53.226;-1.296;2022-09-01T04:24:54;101394.88;;;15.07;89.59
73624;BME280;61921;53.226;-1.296;2022-09-01T04:27:20;101389.41;;;15.24;88.78
73624;BME280;61921;53.226;-1.296;2022-09-01T04:29:45;101389.00;;;15.26;88.58
73624;BME280;61921;53.226;-1.296;2022-09-01T04:32:11;101387.52;;;15.21;88.93
73624;BME280;61921;53.226;-1.296;2022-09-01T04:34:37;101385.41;;;15.21;88.60
73624;BME280;61921;53.226;-1.296;2022-09-01T04:37:02;101381.11;;;15.27;88.55
73624;BME280;61921;53.226;-1.296;2022-09-01T04:39:27;101377.77;;;15.12;88.94
73624;BME280;61921;53.226;-1.296;2022-09-01T04:41:53;101383.90;;;14.98;89.68
73624;BME280;61921;53.226;-1.296;2022-09-01T04:44:18;101380.71;;;15.04;89.28
73624;BME280;61921;53.226;-1.296;2022-09-01T04:46:44;101378.86;;;15.20;88.39
73624;BME280;61921;53.226;-1.296;2022-09-01T04:49:09;101379.65;;;15.04;89.17
73624;BME280;61921;53.226;-1.296;2022-09-01T04:51:36;101374.98;;;15.10;88.82
73624;BME280;61921;53.226;-1.296;2022-09-01T04:54:01;101375.08;;;15.12;88.33
73624;BME280;61921;53.226;-1.296;2022-09-01T04:56:25;101374.75;;;15.08;88.87
73624;BME280;61921;53.226;-1.296;2022-09-01T04:58:51;101372.98;;;15.17;88.33
73624;BME280;61921;53.226;-1.296;2022-09-01T05:01:18;101373.93;;;15.15;88.24
73624;BME280;61921;53.226;-1.296;2022-09-01T05:03:41;101371.30;;;15.17;88.34
73624;BME280;61921;53.226;-1.296;2022-09-01T05:06:12;101368.43;;;15.11;88.42
73624;BME280;61921;53.226;-1.296;2022-09-01T05:08:32;101365.49;;;15.07;88.09
73624;BME280;61921;53.226;-1.296;2022-09-01T05:10:57;101366.05;;;14.92;89.51
73624;BME280;61921;53.226;-1.296;2022-09-01T05:13:22;101368.28;;;14.83;89.91
73624;BME280;61921;53.226;-1.296;2022-09-01T05:18:15;101369.31;;;14.82;89.98
73624;BME280;61921;53.226;-1.296;2022-09-01T05:20:38;101366.92;;;14.72;90.70
73624;BME280;61921;53.226;-1.296;2022-09-01T05:23:04;101365.34;;;14.74;90.54
73624;BME280;61921;53.226;-1.296;2022-09-01T05:25:29;101365.00;;;14.76;90.14
73624;BME280;61921;53.226;-1.296;2022-09-01T05:27:54;101363.39;;;14.77;90.05
73624;BME280;61921;53.226;-1.296;2022-09-01T05:30:19;101363.23;;;14.70;90.30
73624;BME280;61921;53.226;-1.296;2022-09-01T05:32:45;101359.97;;;14.66;90.57
73624;BME280;61921;53.226;-1.296;2022-09-01T05:35:11;101360.49;;;14.55;90.80
73624;BME280;61921;53.226;-1.296;2022-09-01T05:37:37;101357.57;;;14.56;90.69
73624;BME280;61921;53.226;-1.296;2022-09-01T05:40:04;101355.08;;;14.54;90.74
73624;BME280;61921;53.226;-1.296;2022-09-01T05:42:27;101351.49;;;14.53;90.65
73624;BME280;61921;53.226;-1.296;2022-09-01T05:44:53;101352.77;;;14.56;90.92
73624;BME280;61921;53.226;-1.296;2022-09-01T05:47:18;101350.69;;;14.66;90.10
73624;BME280;61921;53.226;-1.296;2022-09-01T05:49:43;101353.48;;;14.59;90.70
73624;BME280;61921;53.226;-1.296;2022-09-01T05:52:09;101353.28;;;14.52;90.87
73624;BME280;61921;53.226;-1.296;2022-09-01T05:54:35;101351.54;;;14.63;90.50
73624;BME280;61921;53.226;-1.296;2022-09-01T05:57:01;101352.52;;;14.64;90.42
73624;BME280;61921;53.226;-1.296;2022-09-01T05:59:28;101353.44;;;14.61;90.40
73624;BME280;61921;53.226;-1.296;2022-09-01T06:01:53;101354.12;;;14.57;90.77
73624;BME280;61921;53.226;-1.296;2022-09-01T06:04:17;101354.99;;;14.73;90.08
73624;BME280;61921;53.226;-1.296;2022-09-01T06:06:46;101358.22;;;14.58;90.78
73624;BME280;61921;53.226;-1.296;2022-09-01T06:09:09;101360.58;;;14.62;90.55
73624;BME280;61921;53.226;-1.296;2022-09-01T06:11:34;101361.31;;;14.62;90.57
73624;BME280;61921;53.226;-1.296;2022-09-01T06:14:00;101356.79;;;14.60;90.66
73624;BME280;61921;53.226;-1.296;2022-09-01T06:16:26;101359.89;;;14.62;90.64
73624;BME280;61921;53.226;-1.296;2022-09-01T06:18:51;101365.73;;;14.64;90.41
73624;BME280;61921;53.226;-1.296;2022-09-01T06:21:16;101366.62;;;14.86;89.30
73624;BME280;61921;53.226;-1.296;2022-09-01T06:23:41;101363.47;;;14.86;88.97
73624;BME280;61921;53.226;-1.296;2022-09-01T06:28:32;101369.05;;;14.90;88.59
73624;BME280;61921;53.226;-1.296;2022-09-01T06:30:57;101367.38;;;14.88;88.36
73624;BME280;61921;53.226;-1.296;2022-09-01T06:33:23;101366.35;;;14.90;88.05
73624;BME280;61921;53.226;-1.296;2022-09-01T06:35:47;101365.65;;;14.91;87.97
73624;BME280;61921;53.226;-1.296;2022-09-01T06:38:13;101365.65;;;14.99;87.65
73624;BME280;61921;53.226;-1.296;2022-09-01T06:40:39;101361.82;;;15.08;86.60
73624;BME280;61921;53.226;-1.296;2022-09-01T06:43:04;101360.21;;;15.18;86.25
73624;BME280;61921;53.226;-1.296;2022-09-01T06:45:29;101361.73;;;15.26;85.78
73624;BME280;61921;53.226;-1.296;2022-09-01T06:47:54;101361.99;;;15.18;85.83
73624;BME280;61921;53.226;-1.296;2022-09-01T06:50:21;101362.57;;;15.32;85.30
73624;BME280;61921;53.226;-1.296;2022-09-01T06:52:45;101359.50;;;15.28;85.07
73624;BME280;61921;53.226;-1.296;2022-09-01T06:55:13;101358.73;;;15.41;84.62
73624;BME280;61921;53.226;-1.296;2022-09-01T06:57:36;101361.48;;;15.44;84.41
73624;BME280;61921;53.226;-1.296;2022-09-01T07:00:02;101361.21;;;15.34;84.25
73624;BME280;61921;53.226;-1.296;2022-09-01T07:02:26;101362.20;;;15.55;83.93
73624;BME280;61921;53.226;-1.296;2022-09-01T07:04:52;101360.59;;;15.56;83.65
73624;BME280;61921;53.226;-1.296;2022-09-01T07:07:17;101361.97;;;15.74;83.02
73624;BME280;61921;53.226;-1.296;2022-09-01T07:09:42;101367.04;;;15.84;82.84
73624;BME280;61921;53.226;-1.296;2022-09-01T07:12:08;101363.33;;;15.81;82.63
73624;BME280;61921;53.226;-1.296;2022-09-01T07:14:34;101361.70;;;15.85;82.55
73624;BME280;61921;53.226;-1.296;2022-09-01T07:16:58;101364.41;;;15.87;82.02
73624;BME280;61921;53.226;-1.296;2022-09-01T07:19:24;101369.52;;;15.86;81.71
73624;BME280;61921;53.226;-1.296;2022-09-01T07:21:48;101367.80;;;16.00;81.23
73624;BME280;61921;53.226;-1.296;2022-09-01T07:24:14;101371.08;;;15.95;80.62
73624;BME280;61921;53.226;-1.296;2022-09-01T07:26:40;101370.52;;;16.00;80.50
73624;BME280;61921;53.226;-1.296;2022-09-01T07:29:05;101371.97;;;16.13;79.78
73624;BME280;61921;53.226;-1.296;2022-09-01T07:31:32;101372.41;;;16.35;79.21
73624;BME280;61921;53.226;-1.296;2022-09-01T07:33:56;101371.07;;;16.50;79.08
73624;BME280;61921;53.226;-1.296;2022-09-01T07:36:20;101364.22;;;16.45;78.72
73624;BME280;61921;53.226;-1.296;2022-09-01T07:38:46;101365.75;;;16.37;79.04
73624;BME280;61921;53.226;-1.296;2022-09-01T07:41:11;101364.41;;;16.50;78.35
73624;BME280;61921;53.226;-1.296;2022-09-01T07:43:36;101366.69;;;16.72;77.59
73624;BME280;61921;53.226;-1.296;2022-09-01T07:46:03;101373.97;;;16.83;76.65
73624;BME280;61921;53.226;-1.296;2022-09-01T07:48:28;101372.30;;;16.87;77.23
73624;BME280;61921;53.226;-1.296;2022-09-01T07:50:54;101368.84;;;16.92;76.18
73624;BME280;61921;53.226;-1.296;2022-09-01T07:53:21;101365.12;;;17.11;75.49
73624;BME280;61921;53.226;-1.296;2022-09-01T07:55:43;101363.92;;;17.09;75.17
73624;BME280;61921;53.226;-1.296;2022-09-01T07:58:08;101362.99;;;17.27;74.76
73624;BME280;61921;53.226;-1.296;2022-09-01T08:00:33;101359.06;;;17.30;73.33
73624;BME280;61921;53.226;-1.296;2022-09-01T08:02:58;101359.04;;;17.16;73.90
73624;BME280;61921;53.226;-1.296;2022-09-01T08:05:23;101354.08;;;17.08;72.43
73624;BME280;61921;53.226;-1.296;2022-09-01T08:07:49;101351.69;;;17.12;72.74
73624;BME280;61921;53.226;-1.296;2022-09-01T08:10:14;101354.75;;;17.51;71.24
73624;BME280;61921;53.226;-1.296;2022-09-01T08:12:39;101348.44;;;18.10;69.13
73624;BME280;61921;53.226;-1.296;2022-09-01T08:15:05;101348.99;;;18.50;67.94
73624;BME280;61921;53.226;-1.296;2022-09-01T08:17:29;101346.55;;;19.09;65.42
73624;BME280;61921;53.226;-1.296;2022-09-01T08:19:55;101344.82;;;19.52;64.58
73624;BME280;61921;53.226;-1.296;2022-09-01T08:22:20;101354.50;;;18.92;65.63
73624;BME280;61921;53.226;-1.296;2022-09-01T08:24:45;101354.98;;;19.20;64.90
73624;BME280;61921;53.226;-1.296;2022-09-01T08:27:11;101345.35;;;19.18;65.02
73624;BME280;61921;53.226;-1.296;2022-09-01T08:29:36;101348.35;;;19.10;64.30
73624;BME280;61921;53.226;-1.296;2022-09-01T08:32:02;101347.20;;;19.39;63.50
73624;BME280;61921;53.226;-1.296;2022-09-01T08:34:27;101338.22;;;19.36;63.64
73624;BME280;61921;53.226;-1.296;2022-09-01T08:36:52;101350.02;;;18.91;64.39
73624;BME280;61921;53.226;-1.296;2022-09-01T08:39:17;101349.07;;;18.55;65.49
73624;BME280;61921;53.226;-1.296;2022-09-01T08:41:44;101347.58;;;18.45;65.98
73624;BME280;61921;53.226;-1.296;2022-09-01T08:44:15;101348.32;;;18.38;66.70
73624;BME280;61921;53.226;-1.296;2022-09-01T08:46:36;101351.68;;;18.30;66.59
73624;BME280;61921;53.226;-1.296;2022-09-01T08:48:59;101347.68;;;18.19;66.89
73624;BME280;61921;53.226;-1.296;2022-09-01T08:51:29;101348.60;;;18.48;66.11
73624;BME280;61921;53.226;-1.296;2022-09-01T08:53:57;101345.69;;;18.44;65.54
73624;BME280;61921;53.226;-1.296;2022-09-01T08:56:14;101347.61;;;18.34;65.61
73624;BME280;61921;53.226;-1.296;2022-09-01T08:58:38;101343.19;;;18.10;66.46
73624;BME280;61921;53.226;-1.296;2022-09-01T09:01:10;101339.76;;;18.01;66.55
73624;BME280;61921;53.226;-1.296;2022-09-01T09:03:35;101339.56;;;19.06;64.08
73624;BME280;61921;53.226;-1.296;2022-09-01T09:06:03;101340.90;;;18.77;63.54
73624;BME280;61921;53.226;-1.296;2022-09-01T09:08:35;101334.36;;;18.87;63.42
73624;BME280;61921;53.226;-1.296;2022-09-01T09:10:54;101335.03;;;19.29;62.00
73624;BME280;61921;53.226;-1.296;2022-09-01T09:13:13;101337.45;;;20.57;59.91
73624;BME280;61921;53.226;-1.296;2022-09-01T09:15:41;101340.69;;;20.85;57.91
73624;BME280;61921;53.226;-1.296;2022-09-01T09:18:09;101337.32;;;20.64;57.94
73624;BME280;61921;53.226;-1.296;2022-09-01T09:20:26;101335.42;;;21.18;56.47
73624;BME280;61921;53.226;-1.296;2022-09-01T09:22:50;101331.49;;;20.72;57.06
73624;BME280;61921;53.226;-1.296;2022-09-01T09:25:17;101330.03;;;20.44;57.91
73624;BME280;61921;53.226;-1.296;2022-09-01T09:27:42;101330.04;;;20.30;57.95
73624;BME280;61921;53.226;-1.296;2022-09-01T09:30:08;101324.69;;;20.53;58.16
73624;BME280;61921;53.226;-1.296;2022-09-01T09:32:45;101323.23;;;20.82;57.07
73624;BME280;61921;53.226;-1.296;2022-09-01T09:35:04;101320.17;;;21.35;55.63
73624;BME280;61921;53.226;-1.296;2022-09-01T09:37:24;101318.10;;;21.42;55.26
73624;BME280;61921;53.226;-1.296;2022-09-01T09:42:13;101319.81;;;20.53;56.87
73624;BME280;61921;53.226;-1.296;2022-09-01T09:44:42;101319.96;;;20.21;57.18
73624;BME280;61921;53.226;-1.296;2022-09-01T09:47:02;101317.93;;;20.72;55.78
73624;BME280;61921;53.226;-1.296;2022-09-01T09:49:29;101313.80;;;21.52;54.47
73624;BME280;61921;53.226;-1.296;2022-09-01T09:51:55;101314.69;;;21.45;54.20
73624;BME280;61921;53.226;-1.296;2022-09-01T09:54:21;101318.31;;;20.95;55.02
73624;BME280;61921;53.226;-1.296;2022-09-01T09:56:43;101316.81;;;20.82;55.62
73624;BME280;61921;53.226;-1.296;2022-09-01T09:59:15;101314.82;;;20.44;57.32
73624;BME280;61921;53.226;-1.296;2022-09-01T10:01:33;101318.44;;;20.55;56.24
73624;BME280;61921;53.226;-1.296;2022-09-01T10:04:00;101313.55;;;20.27;56.28
73624;BME280;61921;53.226;-1.296;2022-09-01T10:06:32;101314.56;;;20.77;55.99
73624;BME280;61921;53.226;-1.296;2022-09-01T10:08:49;101311.04;;;20.31;56.83
73624;BME280;61921;53.226;-1.296;2022-09-01T10:11:24;101309.06;;;20.51;56.58
73624;BME280;61921;53.226;-1.296;2022-09-01T10:13:39;101309.98;;;20.78;56.18
73624;BME280;61921;53.226;-1.296;2022-09-01T10:16:08;101303.05;;;21.24;55.60
73624;BME280;61921;53.226;-1.296;2022-09-01T10:18:31;101300.30;;;21.08;54.24
73624;BME280;61921;53.226;-1.296;2022-09-01T10:20:57;101302.23;;;20.80;56.57
73624;BME280;61921;53.226;-1.296;2022-09-01T10:23:19;101303.77;;;20.78;55.99
73624;BME280;61921;53.226;-1.296;2022-09-01T10:25:45;101311.11;;;20.96;55.36
73624;BME280;61921;53.226;-1.296;2022-09-01T10:28:14;101298.21;;;20.38;55.84
73624;BME280;61921;53.226;-1.296;2022-09-01T10:30:36;101294.14;;;20.56;56.31
73624;BME280;61921;53.226;-1.296;2022-09-01T10:33:00;101288.23;;;20.62;55.77
73624;BME280;61921;53.226;-1.296;2022-09-01T10:35:30;101288.54;;;20.63;56.24
73624;BME280;61921;53.226;-1.296;2022-09-01T10:37:50;101283.53;;;20.56;55.42
73624;BME280;61921;53.226;-1.296;2022-09-01T10:40:19;101281.53;;;21.00;54.22
73624;BME280;61921;53.226;-1.296;2022-09-01T10:42:42;101272.91;;;21.69;53.63
73624;BME280;61921;53.226;-1.296;2022-09-01T10:45:16;101277.56;;;21.31;53.67
73624;BME280;61921;53.226;-1.296;2022-09-01T10:47:31;101267.80;;;22.10;52.68
73624;BME280;61921;53.226;-1.296;2022-09-01T10:49:59;101267.63;;;22.42;51.88
73624;BME280;61921;53.226;-1.296;2022-09-01T10:54:55;101254.46;;;21.91;50.80
73624;BME280;61921;53.226;-1.296;2022-09-01T10:57:20;101256.72;;;21.58;52.12
73624;BME280;61921;53.226;-1.296;2022-09-01T10:59:36;101259.11;;;21.32;52.51
73624;BME280;61921;53.226;-1.296;2022-09-01T11:02:11;101259.89;;;21.09;52.58
73624;BME280;61921;53.226;-1.296;2022-09-01T11:06:56;101251.04;;;22.13;51.16
73624;BME280;61921;53.226;-1.296;2022-09-01T11:09:20;101245.03;;;22.33;50.83
73624;BME280;61921;53.226;-1.296;2022-09-01T11:11:46;101240.48;;;22.90;49.97
73624;BME280;61921;53.226;-1.296;2022-09-01T11:14:15;101240.81;;;22.77;49.71
73624;BME280;61921;53.226;-1.296;2022-09-01T11:16:34;101233.93;;;22.25;50.11
73624;BME280;61921;53.226;-1.296;2022-09-01T11:21:25;101228.92;;;22.75;49.11
73624;BME280;61921;53.226;-1.296;2022-09-01T11:23:46;101231.61;;;21.76;50.36
73624;BME280;61921;53.226;-1.296;2022-09-01T11:28:40;101229.39;;;21.43;52.29
73624;BME280;61921;53.226;-1.296;2022-09-01T11:31:16;101234.91;;;21.54;52.07
73624;BME280;61921;53.226;-1.296;2022-09-01T11:33:40;101224.10;;;21.52;51.89
73624;BME280;61921;53.226;-1.296;2022-09-01T11:35:59;101220.17;;;21.65;52.47
73624;BME280;61921;53.226;-1.296;2022-09-01T11:38:18;101225.00;;;21.82;51.47
73624;BME280;61921;53.226;-1.296;2022-09-01T11:40:53;101224.32;;;21.91;50.61
73624;BME280;61921;53.226;-1.296;2022-09-01T11:43:11;101221.22;;;21.89;50.46
73624;BME280;61921;53.226;-1.296;2022-09-01T11:45:39;101211.98;;;21.69;50.09
73624;BME280;61921;53.226;-1.296;2022-09-01T11:48:02;101208.96;;;21.63;50.04
73624;BME280;61921;53.226;-1.296;2022-09-01T11:50:27;101201.93;;;22.63;48.22
73624;BME280;61921;53.226;-1.296;2022-09-01T11:52:54;101204.32;;;22.41;49.34
73624;BME280;61921;53.226;-1.296;2022-09-01T11:57:40;101203.68;;;23.17;46.60
73624;BME280;61921;53.226;-1.296;2022-09-01T12:00:07;101206.64;;;23.89;45.91
73624;BME280;61921;53.226;-1.296;2022-09-01T12:02:32;101206.07;;;23.64;46.15
73624;BME280;61921;53.226;-1.296;2022-09-01T12:04:55;101205.28;;;22.98;47.65
73624;BME280;61921;53.226;-1.296;2022-09-01T12:07:31;101197.10;;;23.00;48.43
73624;BME280;61921;53.226;-1.296;2022-09-01T12:09:45;101200.55;;;23.20;47.08
73624;BME280;61921;53.226;-1.296;2022-09-01T12:14:34;101200.17;;;22.91;47.86
73624;BME280;61921;53.226;-1.296;2022-09-01T12:17:02;101200.78;;;22.68;48.65
73624;BME280;61921;53.226;-1.296;2022-09-01T12:19:27;101198.34;;;22.55;49.50
73624;BME280;61921;53.226;-1.296;2022-09-01T12:21:55;101199.86;;;22.08;50.35
73624;BME280;61921;53.226;-1.296;2022-09-01T12:24:17;101201.44;;;21.69;51.04
73624;BME280;61921;53.226;-1.296;2022-09-01T12:26:40;101201.36;;;21.49;51.86
73624;BME280;61921;53.226;-1.296;2022-09-01T12:29:05;101196.43;;;22.03;50.66
73624;BME280;61921;53.226;-1.296;2022-09-01T12:31:30;101194.07;;;22.20;49.33
73624;BME280;61921;53.226;-1.296;2022-09-01T12:33:55;101197.60;;;22.26;48.92
73624;BME280;61921;53.226;-1.296;2022-09-01T12:36:23;101188.36;;;22.68;47.37
73624;BME280;61921;53.226;-1.296;2022-09-01T12:38:45;101186.58;;;22.57;48.17
73624;BME280;61921;53.226;-1.296;2022-09-01T12:41:22;101180.10;;;23.01;48.10
73624;BME280;61921;53.226;-1.296;2022-09-01T12:43:37;101185.95;;;22.63;47.10
73624;BME280;61921;53.226;-1.296;2022-09-01T12:46:02;101184.32;;;22.34;48.41
73624;BME280;61921;53.226;-1.296;2022-09-01T12:48:27;101184.72;;;22.03;48.25
73624;BME280;61921;53.226;-1.296;2022-09-01T12:50:51;101183.75;;;22.14;48.20